Time;durP1;ratioP1;P1;durP2;ratioP2;P2;SDS_P1;SDS_P2;PMS_P1;PMS_P2;Temp;Humidity;BMP_temperature;BMP_pressure;BME280_temperature;BME280_humidity;BME280_pressure;Samples;Min_cycle;Max_cycle;Signal;HPM_P1;HPM_P2
2022/07/10 00:00:23;;;;;;;3.5;3.2;;;;;;;17.56;60.32031;95805.7;;;;
2022/07/10 00:01:24;;;;;;;3.5;3.2;;;;;;;17.56;60.32031;95805.7;;;;
2022/07/10 00:02:24;;;;;;;4.25;3.400001;;;;;;;17.47;60.79102;95783.62;;;;
2022/07/10 00:03:25;;;;;;;4.25;3.400001;;;;;;;17.47;60.79102;95783.62;;;;
2022/07/10 00:04:25;;;;;;;4.25;3.400001;;;;;;;17.47;60.79102;95783.62;;;;
2022/07/10 00:05:26;;;;;;;4.25;3.400001;;;;;;;17.47;60.79102;95783.62;;;;
2022/07/10 00:06:27;;;;;;;4.25;3.400001;;;;;;;17.47;60.79102;95783.62;;;;
2022/07/10 00:07:27;;;;;;;4.25;3.400001;;;;;;;17.47;60.79102;95783.62;;;;
2022/07/10 00:08:28;;;;;;;4.25;3.400001;;;;;;;17.47;60.79102;95783.62;;;;
2022/07/10 00:09:28;;;;;;;4.25;3.400001;;;;;;;17.47;60.79102;95783.62;;;;
2022/07/10 00:10:29;;;;;;;4.25;3.400001;;;;;;;17.47;60.79102;95783.62;;;;
2022/07/10 00:11:30;;;;;;;4.25;3.400001;;;;;;;17.47;60.79102;95783.62;;;;
2022/07/10 00:12:30;;;;;;;4.25;3.400001;;;;;;;17.47;60.79102;95783.62;;;;
2022/07/10 00:13:31;;;;;;;3.400001;3.1;;;;;;;17.48;61.20898;95801.68;;;;
2022/07/10 00:14:31;;;;;;;3.400001;3.1;;;;;;;17.48;61.20898;95801.68;;;;
2022/07/10 00:15:32;;;;;;;3.400001;3.1;;;;;;;17.48;61.20898;95801.68;;;;
2022/07/10 00:16:32;;;;;;;3.400001;3.1;;;;;;;17.48;61.20898;95801.68;;;;
2022/07/10 00:17:33;;;;;;;3.400001;3.1;;;;;;;17.48;61.20898;95801.68;;;;
2022/07/10 00:18:34;;;;;;;3.400001;3.1;;;;;;;17.48;61.20898;95801.68;;;;
2022/07/10 00:19:34;;;;;;;3.400001;3.1;;;;;;;17.48;61.20898;95801.68;;;;
2022/07/10 00:20:36;;;;;;;3.400001;3.1;;;;;;;17.48;61.20898;95801.68;;;;
2022/07/10 00:21:36;;;;;;;3.400001;3.1;;;;;;;17.48;61.20898;95801.68;;;;
2022/07/10 00:22:37;;;;;;;3.400001;3.1;;;;;;;17.48;61.20898;95801.68;;;;
2022/07/10 00:23:38;;;;;;;3.85;3.5;;;;;;;17.44;61.45605;95812.56;;;;
2022/07/10 00:24:39;;;;;;;3.85;3.5;;;;;;;17.44;61.45605;95812.56;;;;
2022/07/10 00:25:39;;;;;;;3.85;3.5;;;;;;;17.44;61.45605;95812.56;;;;
2022/07/10 00:26:40;;;;;;;3.85;3.5;;;;;;;17.44;61.45605;95812.56;;;;
2022/07/10 00:27:40;;;;;;;3.85;3.5;;;;;;;17.44;61.45605;95812.56;;;;
2022/07/10 00:28:41;;;;;;;3.85;3.5;;;;;;;17.44;61.45605;95812.56;;;;
2022/07/10 00:29:42;;;;;;;3.85;3.5;;;;;;;17.44;61.45605;95812.56;;;;
2022/07/10 00:30:42;;;;;;;3.85;3.5;;;;;;;17.44;61.45605;95812.56;;;;
2022/07/10 00:31:43;;;;;;;3.85;3.5;;;;;;;17.44;61.45605;95812.56;;;;
2022/07/10 00:32:43;;;;;;;3.85;3.5;;;;;;;17.44;61.45605;95812.56;;;;
2022/07/10 00:33:44;;;;;;;3.85;3.5;;;;;;;17.44;61.45605;95812.56;;;;
2022/07/10 00:34:44;;;;;;;4.05;3.750001;;;;;;;17.45;61.85254;95821.8;;;;
2022/07/10 00:35:45;;;;;;;4.05;3.750001;;;;;;;17.45;61.85254;95821.8;;;;
2022/07/10 00:36:45;;;;;;;4.05;3.750001;;;;;;;17.45;61.85254;95821.8;;;;
2022/07/10 00:37:46;;;;;;;4.05;3.750001;;;;;;;17.45;61.85254;95821.8;;;;
2022/07/10 00:38:46;;;;;;;4.05;3.750001;;;;;;;17.45;61.85254;95821.8;;;;
2022/07/10 00:39:47;;;;;;;4.05;3.750001;;;;;;;17.45;61.85254;95821.8;;;;
2022/07/10 00:40:47;;;;;;;4.05;3.750001;;;;;;;17.45;61.85254;95821.8;;;;
2022/07/10 00:41:47;;;;;;;4.05;3.750001;;;;;;;17.45;61.85254;95821.8;;;;
2022/07/10 00:42:48;;;;;;;4.05;3.750001;;;;;;;17.45;61.85254;95821.8;;;;
2022/07/10 00:43:48;;;;;;;4.05;3.750001;;;;;;;17.45;61.85254;95821.8;;;;
2022/07/10 00:44:53;;;;;;;7.6;6.05;;;;;;;17.33;62.33008;95846.3;;;;
2022/07/10 00:45:54;;;;;;;7.6;6.05;;;;;;;17.33;62.33008;95846.3;;;;
2022/07/10 00:46:54;;;;;;;7.6;6.05;;;;;;;17.33;62.33008;95846.3;;;;
2022/07/10 00:47:55;;;;;;;7.6;6.05;;;;;;;17.33;62.33008;95846.3;;;;
2022/07/10 00:48:55;;;;;;;7.6;6.05;;;;;;;17.33;62.33008;95846.3;;;;
2022/07/10 00:49:57;;;;;;;7.6;6.05;;;;;;;17.33;62.33008;95846.3;;;;
2022/07/10 00:50:58;;;;;;;7.6;6.05;;;;;;;17.33;62.33008;95846.3;;;;
2022/07/10 00:51:58;;;;;;;7.6;6.05;;;;;;;17.33;62.33008;95846.3;;;;
2022/07/10 00:53:02;;;;;;;7.6;6.05;;;;;;;17.33;62.33008;95846.3;;;;
2022/07/10 00:54:02;;;;;;;7.6;6.05;;;;;;;17.33;62.33008;95846.3;;;;
2022/07/10 00:55:05;;;;;;;7.6;6.05;;;;;;;17.33;62.33008;95846.3;;;;
2022/07/10 00:56:07;;;;;;;7.45;6.85;;;;;;;17.22;63.18066;95832.06;;;;
2022/07/10 00:57:09;;;;;;;7.45;6.85;;;;;;;17.22;63.18066;95832.06;;;;
2022/07/10 00:58:10;;;;;;;7.45;6.85;;;;;;;17.22;63.18066;95832.06;;;;
2022/07/10 00:59:12;;;;;;;7.45;6.85;;;;;;;17.22;63.18066;95832.06;;;;
2022/07/10 01:00:13;;;;;;;7.45;6.85;;;;;;;17.22;63.18066;95832.06;;;;
2022/07/10 01:01:14;;;;;;;7.45;6.85;;;;;;;17.22;63.18066;95832.06;;;;
2022/07/10 01:02:15;;;;;;;7.45;6.85;;;;;;;17.22;63.18066;95832.06;;;;
2022/07/10 01:03:16;;;;;;;7.45;6.85;;;;;;;17.22;63.18066;95832.06;;;;
2022/07/10 01:04:17;;;;;;;7.45;6.85;;;;;;;17.22;63.18066;95832.06;;;;
2022/07/10 01:05:18;;;;;;;7.45;6.85;;;;;;;17.22;63.18066;95832.06;;;;
2022/07/10 01:06:18;;;;;;;8.299998;7.5;;;;;;;16.95;63.97266;95830.19;;;;
2022/07/10 01:07:19;;;;;;;8.299998;7.5;;;;;;;16.95;63.97266;95830.19;;;;
2022/07/10 01:08:19;;;;;;;8.299998;7.5;;;;;;;16.95;63.97266;95830.19;;;;
2022/07/10 01:09:20;;;;;;;8.299998;7.5;;;;;;;16.95;63.97266;95830.19;;;;
2022/07/10 01:10:20;;;;;;;8.299998;7.5;;;;;;;16.95;63.97266;95830.19;;;;
2022/07/10 01:11:21;;;;;;;8.299998;7.5;;;;;;;16.95;63.97266;95830.19;;;;
2022/07/10 01:12:22;;;;;;;8.299998;7.5;;;;;;;16.95;63.97266;95830.19;;;;
2022/07/10 01:13:22;;;;;;;8.299998;7.5;;;;;;;16.95;63.97266;95830.19;;;;
2022/07/10 01:14:23;;;;;;;8.299998;7.5;;;;;;;16.95;63.97266;95830.19;;;;
2022/07/10 01:15:25;;;;;;;8.299998;7.5;;;;;;;16.95;63.97266;95830.19;;;;
2022/07/10 01:16:25;;;;;;;8.299998;7.5;;;;;;;16.95;63.97266;95830.19;;;;
2022/07/10 01:17:28;;;;;;;8.350001;7.55;;;;;;;16.79;64.79395;95811.33;;;;
2022/07/10 01:18:29;;;;;;;8.350001;7.55;;;;;;;16.79;64.79395;95811.33;;;;
2022/07/10 01:19:30;;;;;;;8.350001;7.55;;;;;;;16.79;64.79395;95811.33;;;;
2022/07/10 01:20:31;;;;;;;8.350001;7.55;;;;;;;16.79;64.79395;95811.33;;;;
2022/07/10 01:21:32;;;;;;;8.350001;7.55;;;;;;;16.79;64.79395;95811.33;;;;
2022/07/10 01:22:34;;;;;;;8.350001;7.55;;;;;;;16.79;64.79395;95811.33;;;;
2022/07/10 01:23:36;;;;;;;8.350001;7.55;;;;;;;16.79;64.79395;95811.33;;;;
2022/07/10 01:24:37;;;;;;;8.350001;7.55;;;;;;;16.79;64.79395;95811.33;;;;
2022/07/10 01:25:37;;;;;;;8.350001;7.55;;;;;;;16.79;64.79395;95811.33;;;;
2022/07/10 01:26:42;;;;;;;8.350001;7.55;;;;;;;16.79;64.79395;95811.33;;;;
2022/07/10 01:27:43;;;;;;;8.149999;7.4;;;;;;;16.6;65.63086;95810.67;;;;
2022/07/10 01:28:44;;;;;;;8.149999;7.4;;;;;;;16.6;65.63086;95810.67;;;;
2022/07/10 01:29:45;;;;;;;8.149999;7.4;;;;;;;16.6;65.63086;95810.67;;;;
2022/07/10 01:30:46;;;;;;;8.149999;7.4;;;;;;;16.6;65.63086;95810.67;;;;
2022/07/10 01:31:47;;;;;;;8.149999;7.4;;;;;;;16.6;65.63086;95810.67;;;;
2022/07/10 01:32:48;;;;;;;8.149999;7.4;;;;;;;16.6;65.63086;95810.67;;;;
2022/07/10 01:33:48;;;;;;;8.149999;7.4;;;;;;;16.6;65.63086;95810.67;;;;
2022/07/10 01:34:49;;;;;;;8.149999;7.4;;;;;;;16.6;65.63086;95810.67;;;;
2022/07/10 01:35:50;;;;;;;8.149999;7.4;;;;;;;16.6;65.63086;95810.67;;;;
2022/07/10 01:36:50;;;;;;;8.149999;7.4;;;;;;;16.6;65.63086;95810.67;;;;
2022/07/10 01:37:51;;;;;;;8.149999;7.4;;;;;;;16.6;65.63086;95810.67;;;;
2022/07/10 01:38:51;;;;;;;9.5;8.5;;;;;;;16.5;66.32617;95814.87;;;;
2022/07/10 01:39:52;;;;;;;9.5;8.5;;;;;;;16.5;66.32617;95814.87;;;;
2022/07/10 01:40:53;;;;;;;9.5;8.5;;;;;;;16.5;66.32617;95814.87;;;;
2022/07/10 01:41:55;;;;;;;9.5;8.5;;;;;;;16.5;66.32617;95814.87;;;;
2022/07/10 01:42:55;;;;;;;9.5;8.5;;;;;;;16.5;66.32617;95814.87;;;;
2022/07/10 01:43:56;;;;;;;9.5;8.5;;;;;;;16.5;66.32617;95814.87;;;;
2022/07/10 01:44:56;;;;;;;9.5;8.5;;;;;;;16.5;66.32617;95814.87;;;;
2022/07/10 01:45:56;;;;;;;9.5;8.5;;;;;;;16.5;66.32617;95814.87;;;;
2022/07/10 01:46:57;;;;;;;9.5;8.5;;;;;;;16.5;66.32617;95814.87;;;;
2022/07/10 01:47:57;;;;;;;9.5;8.5;;;;;;;16.5;66.32617;95814.87;;;;
2022/07/10 01:48:58;;;;;;;9.549998;8.600001;;;;;;;16.33;67.04395;95801.95;;;;
2022/07/10 01:49:58;;;;;;;9.549998;8.600001;;;;;;;16.33;67.04395;95801.95;;;;
2022/07/10 01:50:59;;;;;;;9.549998;8.600001;;;;;;;16.33;67.04395;95801.95;;;;
2022/07/10 01:51:59;;;;;;;9.549998;8.600001;;;;;;;16.33;67.04395;95801.95;;;;
2022/07/10 01:53:00;;;;;;;9.549998;8.600001;;;;;;;16.33;67.04395;95801.95;;;;
2022/07/10 01:54:00;;;;;;;9.549998;8.600001;;;;;;;16.33;67.04395;95801.95;;;;
2022/07/10 01:55:01;;;;;;;9.549998;8.600001;;;;;;;16.33;67.04395;95801.95;;;;
2022/07/10 01:56:02;;;;;;;9.549998;8.600001;;;;;;;16.33;67.04395;95801.95;;;;
2022/07/10 01:57:04;;;;;;;9.549998;8.600001;;;;;;;16.33;67.04395;95801.95;;;;
2022/07/10 01:58:06;;;;;;;9.549998;8.600001;;;;;;;16.33;67.04395;95801.95;;;;
2022/07/10 01:59:06;;;;;;;9.549998;8.600001;;;;;;;16.33;67.04395;95801.95;;;;
2022/07/10 02:00:07;;;;;;;10.4;9.4;;;;;;;16.22;67.71484;95785.03;;;;
2022/07/10 02:01:09;;;;;;;10.4;9.4;;;;;;;16.22;67.71484;95785.03;;;;
2022/07/10 02:02:10;;;;;;;10.4;9.4;;;;;;;16.22;67.71484;95785.03;;;;
2022/07/10 02:08:21;;;;;;;10.4;9.4;;;;;;;16.22;67.71484;95785.03;;;;
2022/07/10 02:09:22;;;;;;;10.4;9.4;;;;;;;16.22;67.71484;95785.03;;;;
2022/07/10 02:10:22;;;;;;;10.4;9.400001;;;;;;;16.03;68.49316;95773.27;;;;
2022/07/10 02:11:23;;;;;;;10.4;9.400001;;;;;;;16.03;68.49316;95773.27;;;;
2022/07/10 02:12:23;;;;;;;10.4;9.400001;;;;;;;16.03;68.49316;95773.27;;;;
2022/07/10 02:13:27;;;;;;;10.4;9.400001;;;;;;;16.03;68.49316;95773.27;;;;
2022/07/10 02:14:27;;;;;;;10.4;9.400001;;;;;;;16.03;68.49316;95773.27;;;;
2022/07/10 02:15:28;;;;;;;10.4;9.400001;;;;;;;16.03;68.49316;95773.27;;;;
2022/07/10 02:16:29;;;;;;;10.4;9.400001;;;;;;;16.03;68.49316;95773.27;;;;
2022/07/10 02:17:29;;;;;;;10.4;9.400001;;;;;;;16.03;68.49316;95773.27;;;;
2022/07/10 02:18:32;;;;;;;10.4;9.400001;;;;;;;16.03;68.49316;95773.27;;;;
2022/07/10 02:19:32;;;;;;;10.4;9.400001;;;;;;;16.03;68.49316;95773.27;;;;
2022/07/10 02:20:34;;;;;;;10.4;9.400001;;;;;;;16.03;68.49316;95773.27;;;;
2022/07/10 02:21:35;;;;;;;9.450002;8.699999;;;;;;;15.97;69.00781;95771.53;;;;
2022/07/10 02:22:35;;;;;;;9.450002;8.699999;;;;;;;15.97;69.00781;95771.53;;;;
2022/07/10 02:23:36;;;;;;;9.450002;8.699999;;;;;;;15.97;69.00781;95771.53;;;;
2022/07/10 02:24:37;;;;;;;9.450002;8.699999;;;;;;;15.97;69.00781;95771.53;;;;
2022/07/10 02:25:37;;;;;;;9.450002;8.699999;;;;;;;15.97;69.00781;95771.53;;;;
2022/07/10 02:26:38;;;;;;;9.450002;8.699999;;;;;;;15.97;69.00781;95771.53;;;;
2022/07/10 02:27:38;;;;;;;9.450002;8.699999;;;;;;;15.97;69.00781;95771.53;;;;
2022/07/10 02:28:39;;;;;;;9.450002;8.699999;;;;;;;15.97;69.00781;95771.53;;;;
2022/07/10 02:29:39;;;;;;;9.450002;8.699999;;;;;;;15.97;69.00781;95771.53;;;;
2022/07/10 02:30:40;;;;;;;9.450002;8.699999;;;;;;;15.97;69.00781;95771.53;;;;
2022/07/10 02:31:41;;;;;;;9.550001;8.75;;;;;;;15.9;69.5;95779.24;;;;
2022/07/10 02:32:42;;;;;;;9.550001;8.75;;;;;;;15.9;69.5;95779.24;;;;
2022/07/10 02:33:42;;;;;;;9.550001;8.75;;;;;;;15.9;69.5;95779.24;;;;
2022/07/10 02:34:43;;;;;;;9.550001;8.75;;;;;;;15.9;69.5;95779.24;;;;
2022/07/10 02:35:43;;;;;;;9.550001;8.75;;;;;;;15.9;69.5;95779.24;;;;
2022/07/10 02:36:44;;;;;;;9.550001;8.75;;;;;;;15.9;69.5;95779.24;;;;
2022/07/10 02:37:44;;;;;;;9.550001;8.75;;;;;;;15.9;69.5;95779.24;;;;
2022/07/10 02:38:45;;;;;;;9.550001;8.75;;;;;;;15.9;69.5;95779.24;;;;
2022/07/10 02:39:45;;;;;;;9.550001;8.75;;;;;;;15.9;69.5;95779.24;;;;
2022/07/10 02:40:46;;;;;;;9.550001;8.75;;;;;;;15.9;69.5;95779.24;;;;
2022/07/10 02:41:46;;;;;;;9.550001;8.75;;;;;;;15.9;69.5;95779.24;;;;
2022/07/10 02:42:47;;;;;;;9.25;8.450002;;;;;;;15.94;69.95313;95770.67;;;;
2022/07/10 02:43:47;;;;;;;9.25;8.450002;;;;;;;15.94;69.95313;95770.67;;;;
2022/07/10 02:44:48;;;;;;;9.25;8.450002;;;;;;;15.94;69.95313;95770.67;;;;
2022/07/10 02:45:48;;;;;;;9.25;8.450002;;;;;;;15.94;69.95313;95770.67;;;;
2022/07/10 02:46:49;;;;;;;9.25;8.450002;;;;;;;15.94;69.95313;95770.67;;;;
2022/07/10 02:47:49;;;;;;;9.25;8.450002;;;;;;;15.94;69.95313;95770.67;;;;
2022/07/10 02:48:50;;;;;;;9.25;8.450002;;;;;;;15.94;69.95313;95770.67;;;;
2022/07/10 02:49:50;;;;;;;9.25;8.450002;;;;;;;15.94;69.95313;95770.67;;;;
2022/07/10 02:50:52;;;;;;;9.25;8.450002;;;;;;;15.94;69.95313;95770.67;;;;
2022/07/10 02:51:52;;;;;;;9.25;8.450002;;;;;;;15.94;69.95313;95770.67;;;;
2022/07/10 02:52:53;;;;;;;9.25;8.450002;;;;;;;15.94;69.95313;95770.67;;;;
2022/07/10 02:53:53;;;;;;;10.4;9.5;;;;;;;15.87;70.29004;95780.63;;;;
2022/07/10 02:54:54;;;;;;;10.4;9.5;;;;;;;15.87;70.29004;95780.63;;;;
2022/07/10 02:55:54;;;;;;;10.4;9.5;;;;;;;15.87;70.29004;95780.63;;;;
2022/07/10 02:56:55;;;;;;;10.4;9.5;;;;;;;15.87;70.29004;95780.63;;;;
2022/07/10 02:57:56;;;;;;;10.4;9.5;;;;;;;15.87;70.29004;95780.63;;;;
2022/07/10 02:58:56;;;;;;;10.4;9.5;;;;;;;15.87;70.29004;95780.63;;;;
2022/07/10 02:59:56;;;;;;;10.4;9.5;;;;;;;15.87;70.29004;95780.63;;;;
2022/07/10 03:00:57;;;;;;;10.4;9.5;;;;;;;15.87;70.29004;95780.63;;;;
2022/07/10 03:01:57;;;;;;;10.4;9.5;;;;;;;15.87;70.29004;95780.63;;;;
2022/07/10 03:02:58;;;;;;;10.4;9.5;;;;;;;15.87;70.29004;95780.63;;;;
2022/07/10 03:03:58;;;;;;;10.55;9.65;;;;;;;15.88;70.73828;95773.86;;;;
2022/07/10 03:04:59;;;;;;;10.55;9.65;;;;;;;15.88;70.73828;95773.86;;;;
2022/07/10 03:05:59;;;;;;;10.55;9.65;;;;;;;15.88;70.73828;95773.86;;;;
2022/07/10 03:07:00;;;;;;;10.55;9.65;;;;;;;15.88;70.73828;95773.86;;;;
2022/07/10 03:08:00;;;;;;;10.55;9.65;;;;;;;15.88;70.73828;95773.86;;;;
2022/07/10 03:09:01;;;;;;;10.55;9.65;;;;;;;15.88;70.73828;95773.86;;;;
2022/07/10 03:10:01;;;;;;;10.55;9.65;;;;;;;15.88;70.73828;95773.86;;;;
2022/07/10 03:11:02;;;;;;;10.55;9.65;;;;;;;15.88;70.73828;95773.86;;;;
2022/07/10 03:12:02;;;;;;;10.55;9.65;;;;;;;15.88;70.73828;95773.86;;;;
2022/07/10 03:13:03;;;;;;;10.55;9.65;;;;;;;15.88;70.73828;95773.86;;;;
2022/07/10 03:14:05;;;;;;;10.55;9.65;;;;;;;15.88;70.73828;95773.86;;;;
2022/07/10 03:15:06;;;;;;;10.35;9.450001;;;;;;;15.66;71.19434;95771.47;;;;
2022/07/10 03:16:07;;;;;;;10.35;9.450001;;;;;;;15.66;71.19434;95771.47;;;;
2022/07/10 03:17:08;;;;;;;10.35;9.450001;;;;;;;15.66;71.19434;95771.47;;;;
2022/07/10 03:18:09;;;;;;;10.35;9.450001;;;;;;;15.66;71.19434;95771.47;;;;
2022/07/10 03:19:09;;;;;;;10.35;9.450001;;;;;;;15.66;71.19434;95771.47;;;;
2022/07/10 03:20:10;;;;;;;10.35;9.450001;;;;;;;15.66;71.19434;95771.47;;;;
2022/07/10 03:21:10;;;;;;;10.35;9.450001;;;;;;;15.66;71.19434;95771.47;;;;
2022/07/10 03:22:11;;;;;;;10.35;9.450001;;;;;;;15.66;71.19434;95771.47;;;;
2022/07/10 03:23:11;;;;;;;10.35;9.450001;;;;;;;15.66;71.19434;95771.47;;;;
2022/07/10 03:24:12;;;;;;;10.35;9.450001;;;;;;;15.66;71.19434;95771.47;;;;
2022/07/10 03:25:13;;;;;;;10.65;9.7;;;;;;;15.33;71.7959;95769.72;;;;
2022/07/10 03:26:13;;;;;;;10.65;9.7;;;;;;;15.33;71.7959;95769.72;;;;
2022/07/10 03:27:14;;;;;;;10.65;9.7;;;;;;;15.33;71.7959;95769.72;;;;
2022/07/10 03:28:16;;;;;;;10.65;9.7;;;;;;;15.33;71.7959;95769.72;;;;
2022/07/10 03:29:16;;;;;;;10.65;9.7;;;;;;;15.33;71.7959;95769.72;;;;
2022/07/10 03:30:16;;;;;;;10.65;9.7;;;;;;;15.33;71.7959;95769.72;;;;
2022/07/10 03:31:17;;;;;;;10.65;9.7;;;;;;;15.33;71.7959;95769.72;;;;
2022/07/10 03:32:17;;;;;;;10.65;9.7;;;;;;;15.33;71.7959;95769.72;;;;
2022/07/10 03:33:18;;;;;;;10.65;9.7;;;;;;;15.33;71.7959;95769.72;;;;
2022/07/10 03:34:19;;;;;;;10.65;9.7;;;;;;;15.33;71.7959;95769.72;;;;
2022/07/10 03:35:19;;;;;;;10.65;9.7;;;;;;;15.33;71.7959;95769.72;;;;
2022/07/10 03:36:20;;;;;;;11.35;10.35;;;;;;;15.02;72.59277;95780.26;;;;
2022/07/10 03:37:20;;;;;;;11.35;10.35;;;;;;;15.02;72.59277;95780.26;;;;
2022/07/10 03:38:21;;;;;;;11.35;10.35;;;;;;;15.02;72.59277;95780.26;;;;
2022/07/10 03:39:22;;;;;;;11.35;10.35;;;;;;;15.02;72.59277;95780.26;;;;
2022/07/10 03:40:22;;;;;;;11.35;10.35;;;;;;;15.02;72.59277;95780.26;;;;
2022/07/10 03:41:23;;;;;;;11.35;10.35;;;;;;;15.02;72.59277;95780.26;;;;
2022/07/10 03:42:23;;;;;;;11.35;10.35;;;;;;;15.02;72.59277;95780.26;;;;
2022/07/10 03:43:24;;;;;;;11.35;10.35;;;;;;;15.02;72.59277;95780.26;;;;
2022/07/10 03:44:25;;;;;;;11.35;10.35;;;;;;;15.02;72.59277;95780.26;;;;
2022/07/10 03:45:25;;;;;;;11.35;10.35;;;;;;;15.02;72.59277;95780.26;;;;
2022/07/10 03:46:26;;;;;;;11.35;10.35;;;;;;;15.02;72.59277;95780.26;;;;
2022/07/10 03:47:26;;;;;;;11.45;10.25;;;;;;;14.9;73.16016;95784.72;;;;
2022/07/10 03:48:27;;;;;;;11.45;10.25;;;;;;;14.9;73.16016;95784.72;;;;
2022/07/10 03:49:27;;;;;;;11.45;10.25;;;;;;;14.9;73.16016;95784.72;;;;
2022/07/10 03:50:28;;;;;;;11.45;10.25;;;;;;;14.9;73.16016;95784.72;;;;
2022/07/10 03:51:28;;;;;;;11.45;10.25;;;;;;;14.9;73.16016;95784.72;;;;
2022/07/10 03:52:29;;;;;;;11.45;10.25;;;;;;;14.9;73.16016;95784.72;;;;
2022/07/10 03:53:29;;;;;;;11.45;10.25;;;;;;;14.9;73.16016;95784.72;;;;
2022/07/10 03:54:30;;;;;;;11.45;10.25;;;;;;;14.9;73.16016;95784.72;;;;
2022/07/10 03:55:31;;;;;;;11.45;10.25;;;;;;;14.9;73.16016;95784.72;;;;
2022/07/10 04:01:46;;;;;;;10.7;9.8;;;;;;;15.02;73.15625;95783.44;;;;
2022/07/10 04:02:46;;;;;;;10.7;9.8;;;;;;;15.02;73.15625;95783.44;;;;
2022/07/10 04:03:47;;;;;;;10.7;9.8;;;;;;;15.02;73.15625;95783.44;;;;
2022/07/10 04:04:48;;;;;;;10.7;9.8;;;;;;;15.02;73.15625;95783.44;;;;
2022/07/10 04:05:48;;;;;;;10.7;9.8;;;;;;;15.02;73.15625;95783.44;;;;
2022/07/10 04:06:48;;;;;;;10.7;9.8;;;;;;;15.02;73.15625;95783.44;;;;
2022/07/10 04:07:49;;;;;;;10.7;9.8;;;;;;;15.02;73.15625;95783.44;;;;
2022/07/10 04:08:49;;;;;;;11.8;10.85;;;;;;;15.18;73.23926;95781.34;;;;
2022/07/10 04:09:50;;;;;;;11.8;10.85;;;;;;;15.18;73.23926;95781.34;;;;
2022/07/10 04:10:51;;;;;;;11.8;10.85;;;;;;;15.18;73.23926;95781.34;;;;
2022/07/10 04:11:51;;;;;;;11.8;10.85;;;;;;;15.18;73.23926;95781.34;;;;
2022/07/10 04:12:52;;;;;;;11.8;10.85;;;;;;;15.18;73.23926;95781.34;;;;
2022/07/10 04:13:52;;;;;;;11.8;10.85;;;;;;;15.18;73.23926;95781.34;;;;
2022/07/10 04:14:53;;;;;;;11.8;10.85;;;;;;;15.18;73.23926;95781.34;;;;
2022/07/10 04:15:54;;;;;;;11.8;10.85;;;;;;;15.18;73.23926;95781.34;;;;
2022/07/10 04:16:54;;;;;;;11.8;10.85;;;;;;;15.18;73.23926;95781.34;;;;
2022/07/10 04:17:54;;;;;;;11.8;10.85;;;;;;;15.18;73.23926;95781.34;;;;
2022/07/10 04:18:55;;;;;;;11.8;10.85;;;;;;;15.18;73.23926;95781.34;;;;
2022/07/10 04:19:55;;;;;;;11.8;10.85;;;;;;;15.18;73.23926;95781.34;;;;
2022/07/10 04:20:56;;;;;;;11.8;10.85;;;;;;;15.18;73.23926;95781.34;;;;
2022/07/10 04:21:56;;;;;;;11.8;10.85;;;;;;;15.18;73.23926;95781.34;;;;
2022/07/10 04:22:57;;;;;;;11.8;10.85;;;;;;;15.18;73.23926;95781.34;;;;
2022/07/10 04:23:57;;;;;;;11.8;10.85;;;;;;;15.18;73.23926;95781.34;;;;
2022/07/10 04:24:58;;;;;;;11.8;10.85;;;;;;;15.18;73.23926;95781.34;;;;
2022/07/10 04:25:58;;;;;;;11.8;10.85;;;;;;;15.18;73.23926;95781.34;;;;
2022/07/10 04:26:59;;;;;;;11.8;10.85;;;;;;;15.18;73.23926;95781.34;;;;
2022/07/10 04:27:59;;;;;;;11.8;10.85;;;;;;;15.18;73.23926;95781.34;;;;
2022/07/10 04:29:00;;;;;;;11.8;10.85;;;;;;;15.18;73.23926;95781.34;;;;
2022/07/10 04:30:00;;;;;;;11.65;10.5;;;;;;;15.59;73.3291;95772.13;;;;
2022/07/10 04:31:01;;;;;;;11.65;10.5;;;;;;;15.59;73.3291;95772.13;;;;
2022/07/10 04:32:02;;;;;;;11.65;10.5;;;;;;;15.59;73.3291;95772.13;;;;
2022/07/10 04:33:03;;;;;;;11.65;10.5;;;;;;;15.59;73.3291;95772.13;;;;
2022/07/10 04:34:04;;;;;;;11.65;10.5;;;;;;;15.59;73.3291;95772.13;;;;
2022/07/10 04:35:04;;;;;;;11.65;10.5;;;;;;;15.59;73.3291;95772.13;;;;
2022/07/10 04:36:05;;;;;;;11.65;10.5;;;;;;;15.59;73.3291;95772.13;;;;
2022/07/10 04:37:07;;;;;;;11.65;10.5;;;;;;;15.59;73.3291;95772.13;;;;
2022/07/10 04:38:07;;;;;;;11.65;10.5;;;;;;;15.59;73.3291;95772.13;;;;
2022/07/10 04:39:08;;;;;;;11.65;10.5;;;;;;;15.59;73.3291;95772.13;;;;
2022/07/10 04:40:09;;;;;;;10.95;9.950001;;;;;;;15.69;73.41016;95763.42;;;;
2022/07/10 04:41:11;;;;;;;10.95;9.950001;;;;;;;15.69;73.41016;95763.42;;;;
2022/07/10 04:42:11;;;;;;;10.95;9.950001;;;;;;;15.69;73.41016;95763.42;;;;
2022/07/10 04:43:12;;;;;;;10.95;9.950001;;;;;;;15.69;73.41016;95763.42;;;;
2022/07/10 04:44:12;;;;;;;10.95;9.950001;;;;;;;15.69;73.41016;95763.42;;;;
2022/07/10 04:45:13;;;;;;;10.95;9.950001;;;;;;;15.69;73.41016;95763.42;;;;
2022/07/10 04:46:13;;;;;;;10.95;9.950001;;;;;;;15.69;73.41016;95763.42;;;;
2022/07/10 04:47:14;;;;;;;10.95;9.950001;;;;;;;15.69;73.41016;95763.42;;;;
2022/07/10 04:48:14;;;;;;;10.95;9.950001;;;;;;;15.69;73.41016;95763.42;;;;
2022/07/10 04:49:15;;;;;;;10.95;9.950001;;;;;;;15.69;73.41016;95763.42;;;;
2022/07/10 04:50:15;;;;;;;10.95;9.950001;;;;;;;15.69;73.41016;95763.42;;;;
2022/07/10 04:51:16;;;;;;;11.15;10.25;;;;;;;15.93;73.52637;95769.58;;;;
2022/07/10 04:52:16;;;;;;;11.15;10.25;;;;;;;15.93;73.52637;95769.58;;;;
2022/07/10 04:53:17;;;;;;;11.15;10.25;;;;;;;15.93;73.52637;95769.58;;;;
2022/07/10 04:54:17;;;;;;;11.15;10.25;;;;;;;15.93;73.52637;95769.58;;;;
2022/07/10 04:55:18;;;;;;;11.15;10.25;;;;;;;15.93;73.52637;95769.58;;;;
2022/07/10 04:56:18;;;;;;;11.15;10.25;;;;;;;15.93;73.52637;95769.58;;;;
2022/07/10 04:57:19;;;;;;;11.15;10.25;;;;;;;15.93;73.52637;95769.58;;;;
2022/07/10 04:58:19;;;;;;;11.15;10.25;;;;;;;15.93;73.52637;95769.58;;;;
2022/07/10 04:59:20;;;;;;;11.15;10.25;;;;;;;15.93;73.52637;95769.58;;;;
2022/07/10 05:00:20;;;;;;;11.15;10.25;;;;;;;15.93;73.52637;95769.58;;;;
2022/07/10 05:01:21;;;;;;;11.15;10.25;;;;;;;15.93;73.52637;95769.58;;;;
2022/07/10 05:02:21;;;;;;;10.7;9.799999;;;;;;;16.09;73.5752;95779.94;;;;
2022/07/10 05:03:22;;;;;;;10.7;9.799999;;;;;;;16.09;73.5752;95779.94;;;;
2022/07/10 05:04:22;;;;;;;10.7;9.799999;;;;;;;16.09;73.5752;95779.94;;;;
2022/07/10 05:05:23;;;;;;;10.7;9.799999;;;;;;;16.09;73.5752;95779.94;;;;
2022/07/10 05:06:23;;;;;;;10.7;9.799999;;;;;;;16.09;73.5752;95779.94;;;;
2022/07/10 05:07:24;;;;;;;10.7;9.799999;;;;;;;16.09;73.5752;95779.94;;;;
2022/07/10 05:08:24;;;;;;;10.7;9.799999;;;;;;;16.09;73.5752;95779.94;;;;
2022/07/10 05:09:26;;;;;;;10.7;9.799999;;;;;;;16.09;73.5752;95779.94;;;;
2022/07/10 05:10:27;;;;;;;10.7;9.799999;;;;;;;16.09;73.5752;95779.94;;;;
2022/07/10 05:11:27;;;;;;;10.7;9.799999;;;;;;;16.09;73.5752;95779.94;;;;
2022/07/10 05:12:28;;;;;;;11.05;10.05;;;;;;;16.3;73.6543;95780.67;;;;
2022/07/10 05:13:28;;;;;;;11.05;10.05;;;;;;;16.3;73.6543;95780.67;;;;
2022/07/10 05:14:29;;;;;;;11.05;10.05;;;;;;;16.3;73.6543;95780.67;;;;
2022/07/10 05:15:29;;;;;;;11.05;10.05;;;;;;;16.3;73.6543;95780.67;;;;
2022/07/10 05:16:30;;;;;;;11.05;10.05;;;;;;;16.3;73.6543;95780.67;;;;
2022/07/10 05:17:31;;;;;;;11.05;10.05;;;;;;;16.3;73.6543;95780.67;;;;
2022/07/10 05:18:32;;;;;;;11.05;10.05;;;;;;;16.3;73.6543;95780.67;;;;
2022/07/10 05:19:32;;;;;;;11.05;10.05;;;;;;;16.3;73.6543;95780.67;;;;
2022/07/10 05:20:33;;;;;;;11.05;10.05;;;;;;;16.3;73.6543;95780.67;;;;
2022/07/10 05:21:34;;;;;;;11.05;10.05;;;;;;;16.3;73.6543;95780.67;;;;
2022/07/10 05:22:34;;;;;;;11.05;10.05;;;;;;;16.3;73.6543;95780.67;;;;
2022/07/10 05:23:35;;;;;;;11.75;10.75;;;;;;;16.46;73.6377;95798.64;;;;
2022/07/10 05:24:38;;;;;;;11.75;10.75;;;;;;;16.46;73.6377;95798.64;;;;
2022/07/10 05:25:38;;;;;;;11.75;10.75;;;;;;;16.46;73.6377;95798.64;;;;
2022/07/10 05:26:39;;;;;;;11.75;10.75;;;;;;;16.46;73.6377;95798.64;;;;
2022/07/10 05:27:39;;;;;;;11.75;10.75;;;;;;;16.46;73.6377;95798.64;;;;
2022/07/10 05:28:40;;;;;;;11.75;10.75;;;;;;;16.46;73.6377;95798.64;;;;
2022/07/10 05:29:40;;;;;;;11.75;10.75;;;;;;;16.46;73.6377;95798.64;;;;
2022/07/10 05:30:41;;;;;;;11.75;10.75;;;;;;;16.46;73.6377;95798.64;;;;
2022/07/10 05:31:42;;;;;;;11.75;10.75;;;;;;;16.46;73.6377;95798.64;;;;
2022/07/10 05:32:42;;;;;;;11.75;10.75;;;;;;;16.46;73.6377;95798.64;;;;
2022/07/10 05:33:43;;;;;;;11.3;10.4;;;;;;;16.65;73.625;95798.35;;;;
2022/07/10 05:34:44;;;;;;;11.3;10.4;;;;;;;16.65;73.625;95798.35;;;;
2022/07/10 05:35:44;;;;;;;11.3;10.4;;;;;;;16.65;73.625;95798.35;;;;
2022/07/10 05:36:45;;;;;;;11.3;10.4;;;;;;;16.65;73.625;95798.35;;;;
2022/07/10 05:37:45;;;;;;;11.3;10.4;;;;;;;16.65;73.625;95798.35;;;;
2022/07/10 05:38:46;;;;;;;11.3;10.4;;;;;;;16.65;73.625;95798.35;;;;
2022/07/10 05:39:46;;;;;;;11.3;10.4;;;;;;;16.65;73.625;95798.35;;;;
2022/07/10 05:40:47;;;;;;;11.3;10.4;;;;;;;16.65;73.625;95798.35;;;;
2022/07/10 05:41:47;;;;;;;11.3;10.4;;;;;;;16.65;73.625;95798.35;;;;
2022/07/10 05:42:48;;;;;;;11.3;10.4;;;;;;;16.65;73.625;95798.35;;;;
2022/07/10 05:43:49;;;;;;;11.3;10.4;;;;;;;16.65;73.625;95798.35;;;;
2022/07/10 05:44:49;;;;;;;13.5;12.1;;;;;;;16.97;73.55762;95804.47;;;;
2022/07/10 05:45:50;;;;;;;13.5;12.1;;;;;;;16.97;73.55762;95804.47;;;;